createdAt,value
2022-08-18T00:00:23.133Z,988.71
2022-08-18T00:01:23.121Z,988.64
2022-08-18T00:02:28.788Z,988.69
2022-08-18T00:03:53.108Z,988.70
2022-08-18T00:04:35.789Z,988.76
2022-08-18T00:05:24.087Z,988.79
2022-08-18T00:06:23.086Z,988.76
2022-08-18T00:07:23.065Z,988.80
2022-08-18T00:08:23.069Z,988.77
2022-08-18T00:09:23.072Z,988.80
2022-08-18T00:10:23.055Z,988.85
2022-08-18T00:11:23.024Z,988.83
2022-08-18T00:12:23.026Z,988.81
2022-08-18T00:13:23.017Z,988.79
2022-08-18T00:14:23.096Z,988.77
2022-08-18T00:15:23.012Z,988.81
2022-08-18T00:16:23.003Z,988.74
2022-08-18T00:17:23.018Z,988.74
2022-08-18T00:18:22.989Z,988.74
2022-08-18T00:19:43.623Z,988.79
2022-08-18T00:20:23.983Z,988.71
2022-08-18T00:21:22.951Z,988.65
2022-08-18T00:22:22.942Z,988.73
2022-08-18T00:23:22.932Z,988.65
2022-08-18T00:24:22.940Z,988.68
2022-08-18T00:25:22.936Z,988.69
2022-08-18T00:26:22.946Z,988.70
2022-08-18T00:27:26.182Z,988.68
2022-08-18T00:28:24.133Z,988.73
2022-08-18T00:29:22.896Z,988.74
2022-08-18T00:30:22.868Z,988.73
2022-08-18T00:32:22.399Z,988.73
2022-08-18T00:33:22.387Z,988.78
2022-08-18T00:34:22.378Z,988.80
2022-08-18T00:35:22.377Z,988.78
2022-08-18T00:36:22.357Z,988.83
2022-08-18T00:37:22.359Z,988.82
2022-08-18T00:38:23.584Z,988.81
2022-08-18T00:39:22.339Z,988.77
2022-08-18T00:40:22.383Z,988.72
2022-08-18T00:41:22.329Z,988.72
2022-08-18T00:42:28.920Z,988.71
2022-08-18T00:43:24.417Z,988.73
2022-08-18T00:44:23.397Z,988.73
2022-08-18T00:45:23.391Z,988.68
2022-08-18T00:46:23.377Z,988.66
2022-08-18T00:47:32.963Z,988.69
2022-08-18T00:48:24.382Z,988.65
2022-08-18T00:49:23.350Z,988.65
2022-08-18T00:50:23.357Z,988.60
2022-08-18T00:51:23.339Z,988.57
2022-08-18T00:52:23.368Z,988.52
2022-08-18T00:53:23.323Z,988.52
2022-08-18T00:54:23.329Z,988.49
2022-08-18T00:55:23.305Z,988.57
2022-08-18T00:56:23.304Z,988.63
2022-08-18T00:57:23.300Z,988.65
2022-08-18T00:58:23.281Z,988.68
2022-08-18T00:59:23.282Z,988.67
2022-08-18T01:00:23.269Z,988.66
2022-08-18T01:01:23.354Z,988.69
2022-08-18T01:02:23.242Z,988.67
2022-08-18T01:03:24.605Z,988.69
2022-08-18T01:04:23.245Z,988.65
2022-08-18T01:05:23.235Z,988.69
2022-08-18T01:06:23.216Z,988.70
2022-08-18T01:07:23.216Z,988.70
2022-08-18T01:08:28.860Z,988.70
2022-08-18T01:09:24.228Z,988.63
2022-08-18T01:10:23.306Z,988.65
2022-08-18T01:11:23.185Z,988.69
2022-08-18T01:12:45.775Z,988.75
2022-08-18T01:13:24.175Z,988.76
2022-08-18T01:14:23.177Z,988.72
2022-08-18T01:15:28.838Z,988.83
2022-08-18T01:16:24.151Z,988.79
2022-08-18T01:17:23.133Z,988.79
2022-08-18T01:18:23.119Z,988.78
2022-08-18T01:19:23.123Z,988.80
2022-08-18T01:20:23.100Z,988.83
2022-08-18T01:21:23.143Z,988.79
2022-08-18T01:22:23.091Z,988.83
2022-08-18T01:23:23.077Z,988.83
2022-08-18T01:24:23.082Z,988.85
2022-08-18T01:25:23.583Z,988.82
2022-08-18T01:26:23.086Z,988.84
2022-08-18T01:27:23.077Z,988.90
2022-08-18T01:28:23.054Z,988.94
2022-08-18T01:29:23.069Z,988.84
2022-08-18T01:30:23.019Z,988.86
2022-08-18T01:31:23.760Z,988.84
2022-08-18T01:32:23.009Z,988.85
2022-08-18T01:33:22.995Z,988.88
2022-08-18T01:34:23.988Z,988.87
2022-08-18T01:35:23.000Z,988.85
2022-08-18T01:36:23.065Z,988.87
2022-08-18T01:37:22.970Z,988.88
2022-08-18T01:38:22.952Z,988.85
2022-08-18T01:41:23.888Z,988.85
2022-08-18T01:41:24.228Z,988.89
2022-08-18T01:41:30.318Z,988.85
2022-08-18T01:42:24.938Z,988.84
2022-08-18T01:43:22.906Z,988.87
2022-08-18T01:45:29.179Z,988.85
2022-08-18T01:46:29.178Z,988.79
2022-08-18T01:47:29.173Z,988.75
2022-08-18T01:48:31.250Z,988.75
2022-08-18T01:49:30.292Z,988.78
2022-08-18T01:50:30.236Z,988.80
2022-08-18T01:51:39.453Z,988.76
2022-08-18T01:52:31.225Z,988.72
2022-08-18T01:53:30.209Z,988.76
2022-08-18T01:54:30.370Z,988.77
2022-08-18T01:55:30.193Z,988.77
2022-08-18T01:56:30.191Z,988.74
2022-08-18T01:57:30.182Z,988.80
2022-08-18T01:58:31.809Z,988.79
2022-08-18T01:59:31.161Z,988.83
2022-08-18T02:00:30.150Z,988.82
2022-08-18T02:01:36.642Z,988.79
2022-08-18T02:02:31.187Z,988.79
2022-08-18T02:03:30.135Z,988.86
2022-08-18T02:04:37.614Z,988.82
2022-08-18T02:05:32.116Z,988.87
2022-08-18T02:06:32.488Z,988.91
2022-08-18T02:07:35.951Z,988.91
2022-08-18T02:08:31.097Z,988.94
2022-08-18T02:09:30.083Z,988.94
2022-08-18T02:10:30.076Z,988.92
2022-08-18T02:11:30.065Z,988.88
2022-08-18T02:12:30.059Z,988.96
2022-08-18T02:13:30.059Z,988.92
2022-08-18T02:14:31.304Z,988.91
2022-08-18T02:15:30.044Z,988.93
2022-08-18T02:16:30.027Z,988.92
2022-08-18T02:17:30.020Z,988.93
2022-08-18T02:18:47.226Z,988.94
2022-08-18T02:19:32.001Z,988.96
2022-08-18T02:20:30.014Z,988.95
2022-08-18T02:21:29.990Z,988.95
2022-08-18T02:22:29.979Z,988.92
2022-08-18T02:23:29.976Z,988.85
2022-08-18T02:24:29.966Z,988.91
2022-08-18T02:25:29.995Z,988.88
2022-08-18T02:26:29.948Z,988.93
2022-08-18T02:27:29.938Z,988.89
2022-08-18T02:28:30.742Z,988.87
2022-08-18T02:29:30.929Z,988.88
2022-08-18T02:30:29.917Z,988.83
2022-08-18T02:31:29.923Z,988.82
2022-08-18T02:32:29.896Z,988.88
2022-08-18T02:33:29.889Z,988.84
2022-08-18T02:34:29.882Z,988.81
2022-08-18T02:35:29.872Z,988.89
2022-08-18T02:36:29.870Z,988.84
2022-08-18T02:37:29.852Z,988.83
2022-08-18T02:38:29.851Z,988.82
2022-08-18T02:39:29.929Z,988.84
2022-08-18T02:40:29.839Z,988.83
2022-08-18T02:41:30.187Z,988.84
2022-08-18T02:42:29.818Z,988.91
2022-08-18T02:43:31.161Z,988.91
2022-08-18T02:44:30.629Z,988.94
2022-08-18T02:45:30.796Z,988.93
2022-08-18T02:46:31.305Z,988.95
2022-08-18T02:47:33.521Z,988.90
2022-08-18T02:48:30.770Z,988.91
2022-08-18T02:49:29.767Z,988.95
2022-08-18T02:50:29.754Z,988.93
2022-08-18T02:51:29.743Z,988.84
2022-08-18T02:52:29.752Z,988.84
2022-08-18T02:53:29.720Z,988.81
2022-08-18T02:54:29.717Z,988.74
2022-08-18T02:55:29.711Z,988.81
2022-08-18T02:56:32.863Z,988.85
2022-08-18T02:57:30.688Z,988.86
2022-08-18T02:58:33.571Z,988.85
2022-08-18T02:59:31.944Z,988.85
2022-08-18T03:00:29.680Z,988.84
2022-08-18T03:01:29.775Z,988.82
2022-08-18T03:02:29.650Z,988.85
2022-08-18T03:03:29.642Z,988.83
2022-08-18T03:04:30.548Z,988.85
2022-08-18T03:05:29.637Z,988.81
2022-08-18T03:06:29.619Z,988.77
2022-08-18T03:07:29.616Z,988.75
2022-08-18T03:08:29.600Z,988.71
2022-08-18T03:09:29.593Z,988.72
2022-08-18T03:10:33.006Z,988.79
2022-08-18T03:11:29.588Z,988.76
2022-08-18T03:12:29.580Z,988.73
2022-08-18T03:13:29.561Z,988.76
2022-08-18T03:14:29.560Z,988.70
2022-08-18T03:15:29.552Z,988.70
2022-08-18T03:16:29.546Z,988.66
2022-08-18T03:17:29.532Z,988.72
2022-08-18T03:18:29.523Z,988.70
2022-08-18T03:19:29.635Z,988.74
2022-08-18T03:20:30.282Z,988.75
2022-08-18T03:21:29.500Z,988.74
2022-08-18T03:22:29.763Z,988.81
2022-08-18T03:23:30.095Z,988.75
2022-08-18T03:24:29.488Z,988.78
2022-08-18T03:25:29.466Z,988.82
2022-08-18T03:26:29.460Z,988.76
2022-08-18T03:27:30.078Z,988.83
2022-08-18T03:28:29.444Z,988.87
2022-08-18T03:29:32.317Z,988.80
2022-08-18T03:30:30.431Z,988.79
2022-08-18T03:31:29.418Z,988.78
2022-08-18T03:32:29.413Z,988.78
2022-08-18T03:33:29.435Z,988.79
2022-08-18T03:34:29.408Z,988.78
2022-08-18T03:35:29.395Z,988.80
2022-08-18T03:36:29.384Z,988.82
2022-08-18T03:37:29.374Z,988.81
2022-08-18T03:38:29.364Z,988.80
2022-08-18T03:39:29.470Z,988.81
2022-08-18T03:40:29.381Z,988.79
2022-08-18T03:41:57.117Z,988.81
2022-08-18T03:42:30.336Z,988.81
2022-08-18T03:43:50.756Z,988.81
2022-08-18T03:44:31.107Z,988.78
2022-08-18T03:45:29.673Z,988.83
2022-08-18T03:46:29.298Z,988.84
2022-08-18T03:47:29.287Z,988.78
2022-08-18T03:48:29.283Z,988.86
2022-08-18T03:49:29.280Z,988.84
2022-08-18T03:50:29.267Z,988.81
2022-08-18T03:51:29.257Z,988.85
2022-08-18T03:52:29.250Z,988.84
2022-08-18T03:53:29.241Z,988.90
2022-08-18T03:54:29.280Z,988.93
2022-08-18T03:55:29.233Z,988.97
2022-08-18T03:56:29.206Z,988.96
2022-08-18T03:57:30.214Z,988.93
2022-08-18T03:58:29.204Z,988.90
2022-08-18T03:59:29.199Z,988.87
2022-08-18T04:00:29.194Z,988.91
2022-08-18T04:01:29.224Z,988.85
2022-08-18T04:02:29.175Z,988.82
2022-08-18T04:03:29.173Z,988.84
2022-08-18T04:04:29.159Z,988.83
2022-08-18T04:05:29.156Z,988.82
2022-08-18T04:06:29.883Z,988.90
2022-08-18T04:07:29.142Z,988.87
2022-08-18T04:08:29.127Z,988.87
2022-08-18T04:09:29.124Z,988.93
2022-08-18T04:10:29.117Z,988.92
2022-08-18T04:11:29.104Z,988.99
2022-08-18T04:12:30.092Z,989.00
2022-08-18T04:13:29.086Z,989.04
2022-08-18T04:14:29.092Z,989.05
2022-08-18T04:15:29.075Z,989.09
2022-08-18T04:16:29.061Z,989.03
2022-08-18T04:17:29.063Z,988.98
2022-08-18T04:18:29.042Z,988.98
2022-08-18T04:19:29.076Z,989.01
2022-08-18T04:20:29.030Z,988.98
2022-08-18T04:21:29.038Z,988.98
2022-08-18T04:22:29.017Z,988.98
2022-08-18T04:23:29.012Z,988.98
2022-08-18T04:24:31.170Z,988.96
2022-08-18T04:25:32.728Z,988.95
2022-08-18T04:26:29.982Z,988.96
2022-08-18T04:27:28.983Z,988.98
2022-08-18T04:28:28.976Z,988.96
2022-08-18T04:29:28.976Z,988.95
2022-08-18T04:30:28.953Z,988.98
2022-08-18T04:31:28.946Z,988.98
2022-08-18T04:32:30.293Z,989.00
2022-08-18T04:33:28.931Z,989.00
2022-08-18T04:34:28.934Z,989.02
2022-08-18T04:35:29.083Z,989.02
2022-08-18T04:36:28.905Z,989.03
2022-08-18T04:37:28.904Z,989.04
2022-08-18T04:38:28.886Z,988.98
2022-08-18T04:39:28.920Z,988.97
2022-08-18T04:40:28.900Z,988.96
2022-08-18T04:41:28.859Z,988.96
2022-08-18T04:42:28.861Z,989.00
2022-08-18T04:43:28.844Z,988.98
2022-08-18T04:44:28.842Z,989.03
2022-08-18T04:45:28.826Z,989.04
2022-08-18T04:46:28.819Z,989.08
2022-08-18T04:47:28.818Z,989.10
2022-08-18T04:48:28.809Z,989.12
2022-08-18T04:49:28.794Z,989.06
2022-08-18T04:50:28.795Z,989.06
2022-08-18T04:52:37.752Z,989.13
2022-08-18T04:52:40.241Z,989.10
2022-08-18T04:53:29.761Z,989.09
2022-08-18T04:54:28.755Z,988.97
2022-08-18T04:55:28.757Z,989.06
2022-08-18T04:56:28.742Z,988.98
2022-08-18T04:57:28.730Z,989.03
2022-08-18T04:58:28.725Z,989.02
2022-08-18T04:59:28.719Z,989.05
2022-08-18T05:00:28.705Z,989.05
2022-08-18T05:01:28.797Z,989.06
2022-08-18T05:02:28.692Z,989.03
2022-08-18T05:03:28.683Z,989.06
2022-08-18T05:04:28.688Z,989.07
2022-08-18T05:05:28.666Z,989.02
2022-08-18T05:06:28.657Z,988.94
2022-08-18T05:07:28.653Z,988.96
2022-08-18T05:08:28.647Z,989.02
2022-08-18T05:09:28.647Z,989.01
2022-08-18T05:10:28.627Z,988.99
2022-08-18T05:11:28.621Z,988.95
2022-08-18T05:12:28.614Z,988.98
2022-08-18T05:13:28.609Z,988.89
2022-08-18T05:14:28.605Z,988.96
2022-08-18T05:15:28.819Z,988.98
2022-08-18T05:16:28.589Z,989.06
2022-08-18T05:17:30.137Z,989.10
2022-08-18T05:18:28.570Z,989.07
2022-08-18T05:19:28.569Z,989.14
2022-08-18T05:20:28.564Z,988.98
2022-08-18T05:21:28.551Z,989.04
2022-08-18T05:22:31.376Z,989.01
2022-08-18T05:23:28.534Z,989.01
2022-08-18T05:24:33.570Z,988.97
2022-08-18T05:25:30.520Z,989.03
2022-08-18T05:26:28.509Z,989.01
2022-08-18T05:27:28.501Z,989.01
2022-08-18T05:28:28.496Z,989.00
2022-08-18T05:29:28.486Z,988.98
2022-08-18T05:30:28.490Z,988.95
2022-08-18T05:31:28.477Z,988.99
2022-08-18T05:32:46.310Z,989.00
2022-08-18T05:33:29.456Z,989.00
2022-08-18T05:34:28.501Z,988.99
2022-08-18T05:35:28.446Z,989.00
2022-08-18T05:36:28.430Z,988.98
2022-08-18T05:37:28.425Z,989.01
2022-08-18T05:38:29.421Z,989.04
2022-08-18T05:39:28.481Z,989.07
2022-08-18T05:40:28.407Z,989.06
2022-08-18T05:41:28.394Z,989.04
2022-08-18T05:42:28.777Z,989.09
2022-08-18T05:43:28.377Z,989.08
2022-08-18T05:44:28.375Z,988.99
2022-08-18T05:45:28.369Z,989.08
2022-08-18T05:46:28.365Z,989.11
2022-08-18T05:47:28.346Z,989.11
2022-08-18T05:48:28.337Z,989.13
2022-08-18T05:49:28.334Z,989.14
2022-08-18T05:50:28.321Z,989.14
2022-08-18T05:51:28.325Z,989.14
2022-08-18T05:52:28.303Z,989.23
2022-08-18T05:53:28.299Z,989.20
2022-08-18T05:54:28.297Z,989.20
2022-08-18T05:55:28.291Z,989.15
2022-08-18T05:56:28.282Z,989.11
2022-08-18T05:57:28.268Z,989.16
2022-08-18T05:58:33.299Z,989.18
2022-08-18T05:59:29.255Z,989.14
2022-08-18T06:00:28.279Z,989.14
2022-08-18T06:01:28.242Z,989.17
2022-08-18T06:02:28.230Z,989.16
2022-08-18T06:03:28.261Z,989.23
2022-08-18T06:04:28.215Z,989.23
2022-08-18T06:05:28.204Z,989.17
2022-08-18T06:06:28.213Z,989.22
2022-08-18T06:07:28.196Z,989.34
2022-08-18T06:08:29.183Z,989.37
2022-08-18T06:09:28.186Z,989.34
2022-08-18T06:10:28.271Z,989.38
2022-08-18T06:11:28.172Z,989.31
2022-08-18T06:12:28.152Z,989.31
2022-08-18T06:13:28.162Z,989.35
2022-08-18T06:14:28.136Z,989.28
2022-08-18T06:15:28.127Z,989.29
2022-08-18T06:16:28.118Z,989.28
2022-08-18T06:17:28.121Z,989.30
2022-08-18T06:18:28.103Z,989.37
2022-08-18T06:19:28.097Z,989.41
2022-08-18T06:20:28.224Z,989.40
2022-08-18T06:21:28.080Z,989.38
2022-08-18T06:22:30.539Z,989.41
2022-08-18T06:23:28.067Z,989.36
2022-08-18T06:24:28.053Z,989.35
2022-08-18T06:25:28.061Z,989.27
2022-08-18T06:26:28.048Z,989.31
2022-08-18T06:27:28.067Z,989.30
2022-08-18T06:28:28.029Z,989.27
2022-08-18T06:29:28.016Z,989.28
2022-08-18T06:30:28.008Z,989.30
2022-08-18T06:31:29.559Z,989.22
2022-08-18T06:32:28.997Z,989.28
2022-08-18T06:33:27.986Z,989.32
2022-08-18T06:34:27.977Z,989.34
2022-08-18T06:35:27.995Z,989.36
2022-08-18T06:36:27.969Z,989.37
2022-08-18T06:37:28.715Z,989.46
2022-08-18T06:38:27.946Z,989.44
2022-08-18T06:39:28.005Z,989.41
2022-08-18T06:40:27.933Z,989.38
2022-08-18T06:41:40.700Z,989.43
2022-08-18T06:42:28.914Z,989.43
2022-08-18T06:43:27.907Z,989.45
2022-08-18T06:44:27.903Z,989.37
2022-08-18T06:45:33.780Z,989.32
2022-08-18T06:46:28.894Z,989.39
2022-08-18T06:47:27.877Z,989.36
2022-08-18T06:48:27.872Z,989.26
2022-08-18T06:49:27.867Z,989.28
2022-08-18T06:50:27.861Z,989.30
2022-08-18T06:51:27.847Z,989.29
2022-08-18T06:52:27.870Z,989.28
2022-08-18T06:53:28.390Z,989.23
2022-08-18T06:54:27.836Z,989.28
2022-08-18T06:55:27.813Z,989.31
2022-08-18T06:56:27.807Z,989.26
2022-08-18T06:57:27.809Z,989.31
2022-08-18T06:58:27.790Z,989.25
2022-08-18T06:59:27.782Z,989.25
2022-08-18T07:00:27.777Z,989.26
2022-08-18T07:01:27.793Z,989.28
2022-08-18T07:02:27.769Z,989.28
2022-08-18T07:03:28.775Z,989.23
2022-08-18T07:04:27.742Z,989.29
2022-08-18T07:05:27.737Z,989.31
2022-08-18T07:06:27.728Z,989.29
2022-08-18T07:07:27.725Z,989.25
2022-08-18T07:08:28.713Z,989.26
2022-08-18T07:09:27.721Z,989.26
2022-08-18T07:10:27.716Z,989.26
2022-08-18T07:11:27.684Z,989.29
2022-08-18T07:12:32.254Z,989.29
2022-08-18T07:13:30.212Z,989.27
2022-08-18T07:14:27.685Z,989.25
2022-08-18T07:15:27.652Z,989.30
2022-08-18T07:16:54.516Z,989.23
2022-08-18T07:17:42.564Z,989.23
2022-08-18T07:18:28.626Z,989.28
2022-08-18T07:19:27.619Z,989.27
2022-08-18T07:20:27.614Z,989.23
2022-08-18T07:21:27.604Z,989.28
2022-08-18T07:22:38.932Z,989.28
2022-08-18T07:23:28.612Z,989.32
2022-08-18T07:24:27.585Z,989.29
2022-08-18T07:25:27.572Z,989.31
2022-08-18T07:26:27.565Z,989.44
2022-08-18T07:27:28.234Z,989.45
2022-08-18T07:28:27.559Z,989.45
2022-08-18T07:29:27.536Z,989.48
2022-08-18T07:30:27.539Z,989.50
2022-08-18T07:31:27.546Z,989.59
2022-08-18T07:32:27.512Z,989.61
2022-08-18T07:33:27.519Z,989.58
2022-08-18T07:34:27.532Z,989.67
2022-08-18T07:35:27.506Z,989.63
2022-08-18T07:36:27.484Z,989.67
2022-08-18T07:37:28.950Z,989.61
2022-08-18T07:38:42.453Z,989.59
2022-08-18T07:39:29.525Z,989.62
2022-08-18T07:40:27.476Z,989.64
2022-08-18T07:41:28.242Z,989.60
2022-08-18T07:42:53.534Z,989.62
2022-08-18T07:43:28.423Z,989.60
2022-08-18T07:44:27.414Z,989.61
2022-08-18T07:45:27.411Z,989.60
2022-08-18T07:46:27.397Z,989.58
2022-08-18T07:47:27.398Z,989.55
2022-08-18T07:48:38.175Z,989.60
2022-08-18T07:49:29.376Z,989.48
2022-08-18T07:50:57.652Z,989.50
2022-08-18T07:51:37.046Z,989.43
2022-08-18T07:52:43.935Z,989.52
2022-08-18T07:53:28.356Z,989.49
2022-08-18T07:54:48.470Z,989.46
2022-08-18T07:55:29.328Z,989.48
2022-08-18T07:56:27.321Z,989.48
2022-08-18T07:57:27.310Z,989.51
2022-08-18T07:58:27.339Z,989.47
2022-08-18T07:59:27.292Z,989.52
2022-08-18T08:00:57.086Z,989.59
2022-08-18T08:01:29.307Z,989.56
2022-08-18T08:02:27.274Z,989.58
2022-08-18T08:03:27.287Z,989.68
2022-08-18T08:04:27.251Z,989.67
2022-08-18T08:05:27.239Z,989.70
2022-08-18T08:06:27.247Z,989.71
2022-08-18T08:07:27.251Z,989.83
2022-08-18T08:08:27.223Z,989.83
2022-08-18T08:09:27.215Z,989.76
2022-08-18T08:10:27.202Z,989.78
2022-08-18T08:11:27.203Z,989.79
2022-08-18T08:12:27.186Z,989.78
2022-08-18T08:13:53.533Z,989.73
2022-08-18T08:14:29.201Z,989.79
2022-08-18T08:15:27.360Z,989.76
2022-08-18T08:16:27.167Z,989.84
2022-08-18T08:17:27.147Z,989.76
2022-08-18T08:18:27.137Z,989.77
2022-08-18T08:19:49.342Z,989.83
2022-08-18T08:20:32.889Z,989.79
2022-08-18T08:21:27.145Z,989.87
2022-08-18T08:22:27.110Z,989.88
2022-08-18T08:23:27.101Z,989.83
2022-08-18T08:24:27.099Z,989.88
2022-08-18T08:25:47.550Z,989.88
2022-08-18T08:26:29.079Z,989.91
2022-08-18T08:27:27.682Z,989.92
2022-08-18T08:28:27.065Z,989.93
2022-08-18T08:29:27.066Z,989.93
2022-08-18T08:30:27.048Z,989.91
2022-08-18T08:31:39.761Z,989.94
2022-08-18T08:32:29.031Z,990.01
2022-08-18T08:33:27.028Z,990.01
2022-08-18T08:34:27.028Z,989.97
2022-08-18T08:35:50.159Z,990.06
2022-08-18T08:36:28.020Z,990.07
2022-08-18T08:37:26.991Z,989.99
2022-08-18T08:38:42.301Z,990.08
2022-08-18T08:39:29.062Z,990.08
2022-08-18T08:40:26.972Z,990.11
2022-08-18T08:41:26.965Z,990.15
2022-08-18T08:42:31.547Z,990.13
2022-08-18T08:43:27.946Z,990.19
2022-08-18T08:44:26.934Z,990.23
2022-08-18T08:45:26.935Z,990.28
2022-08-18T08:46:26.935Z,990.31
2022-08-18T08:47:26.922Z,990.35
2022-08-18T08:48:26.901Z,990.40
2022-08-18T08:49:26.895Z,990.40
2022-08-18T08:50:26.893Z,990.49
2022-08-18T08:51:26.893Z,990.48
2022-08-18T08:52:26.867Z,990.53
2022-08-18T08:53:26.859Z,990.53
2022-08-18T08:54:26.856Z,990.53
2022-08-18T08:55:26.849Z,990.54
2022-08-18T08:56:26.838Z,990.47
2022-08-18T08:57:27.690Z,990.45
2022-08-18T08:58:26.821Z,990.47
2022-08-18T08:59:26.813Z,990.43
2022-08-18T09:00:26.810Z,990.42
2022-08-18T09:01:26.883Z,990.46
2022-08-18T09:02:46.820Z,990.51
2022-08-18T09:03:30.260Z,990.45
2022-08-18T09:04:26.770Z,990.46
2022-08-18T09:05:26.819Z,990.54
2022-08-18T09:06:26.769Z,990.59
2022-08-18T09:07:26.744Z,990.63
2022-08-18T09:08:26.745Z,990.63
2022-08-18T09:09:26.735Z,990.66
2022-08-18T09:10:26.725Z,990.63
2022-08-18T09:11:26.723Z,990.56
2022-08-18T09:12:26.715Z,990.63
2022-08-18T09:13:29.171Z,990.55
2022-08-18T09:14:27.687Z,990.53
2022-08-18T09:15:26.683Z,990.49
2022-08-18T09:16:27.779Z,990.50
2022-08-18T09:17:30.026Z,990.44
2022-08-18T09:18:27.649Z,990.45
2022-08-18T09:19:26.651Z,990.43
2022-08-18T09:20:26.646Z,990.45
2022-08-18T09:21:26.623Z,990.43
2022-08-18T09:22:27.177Z,990.40
2022-08-18T09:23:26.611Z,990.40
2022-08-18T09:24:26.612Z,990.40
2022-08-18T09:25:26.602Z,990.34
2022-08-18T09:26:26.591Z,990.33
2022-08-18T09:27:26.596Z,990.35
2022-08-18T09:28:26.579Z,990.35
2022-08-18T09:29:26.565Z,990.37
2022-08-18T09:30:26.565Z,990.42
2022-08-18T09:31:26.550Z,990.39
2022-08-18T09:32:28.209Z,990.39
2022-08-18T09:33:26.543Z,990.40
2022-08-18T09:34:26.527Z,990.41
2022-08-18T09:35:26.525Z,990.39
2022-08-18T09:36:26.513Z,990.41
2022-08-18T09:37:26.573Z,990.39
2022-08-18T09:38:26.505Z,990.40
2022-08-18T09:39:26.620Z,990.39
2022-08-18T09:40:51.341Z,990.39
2022-08-18T09:41:28.472Z,990.41
2022-08-18T09:42:29.897Z,990.36
2022-08-18T09:43:26.467Z,990.31
2022-08-18T09:44:26.578Z,990.32
2022-08-18T09:45:31.058Z,990.31
2022-08-18T09:46:28.438Z,990.31
2022-08-18T09:47:27.505Z,990.31
2022-08-18T09:49:27.422Z,990.27
2022-08-18T09:50:26.805Z,990.30
2022-08-18T09:50:37.216Z,990.30
2022-08-18T09:51:27.396Z,990.24
2022-08-18T09:52:26.427Z,990.24
2022-08-18T09:53:26.381Z,990.25
2022-08-18T09:54:26.377Z,990.21
2022-08-18T09:55:26.367Z,990.25
2022-08-18T09:56:28.675Z,990.25
2022-08-18T09:57:26.362Z,990.24
2022-08-18T09:58:26.352Z,990.24
2022-08-18T09:59:26.321Z,990.12
2022-08-18T10:00:28.251Z,990.17
2022-08-18T10:01:26.362Z,990.11
2022-08-18T10:02:28.059Z,990.10
2022-08-18T10:03:26.476Z,990.10
2022-08-18T10:04:29.227Z,990.08
2022-08-18T10:05:26.290Z,990.00
2022-08-18T10:06:27.616Z,990.00
2022-08-18T10:07:26.274Z,990.01
2022-08-18T10:08:26.270Z,989.95
2022-08-18T10:09:36.972Z,989.97
2022-08-18T10:11:01.247Z,989.89
2022-08-18T10:11:27.238Z,989.88
2022-08-18T10:12:27.453Z,989.87
2022-08-18T10:13:26.233Z,989.82
2022-08-18T10:14:26.227Z,989.86
2022-08-18T10:15:33.125Z,989.88
2022-08-18T10:16:28.141Z,989.88
2022-08-18T10:17:26.194Z,989.84
2022-08-18T10:18:26.185Z,989.82
2022-08-18T10:19:28.165Z,989.81
2022-08-18T10:20:28.179Z,989.84
2022-08-18T10:21:26.166Z,989.83
2022-08-18T10:22:35.171Z,989.83
2022-08-18T10:23:28.147Z,989.82
2022-08-18T10:24:35.847Z,989.80
2022-08-18T10:25:28.133Z,989.83
2022-08-18T10:26:26.143Z,989.82
2022-08-18T10:27:26.118Z,989.78
2022-08-18T10:28:26.110Z,989.73
2022-08-18T10:29:26.097Z,989.71
2022-08-18T10:30:30.449Z,989.69
2022-08-18T10:31:27.285Z,989.68
2022-08-18T10:32:26.072Z,989.64
2022-08-18T10:33:26.074Z,989.66
2022-08-18T10:34:26.064Z,989.67
2022-08-18T10:35:32.662Z,989.63
2022-08-18T10:36:28.806Z,989.74
2022-08-18T10:37:26.341Z,989.78
2022-08-18T10:38:26.026Z,989.78
2022-08-18T10:39:27.117Z,989.84
2022-08-18T10:40:26.652Z,989.86
2022-08-18T10:41:26.731Z,989.88
2022-08-18T10:42:28.599Z,989.92
2022-08-18T10:44:29.591Z,989.91
2022-08-18T10:45:26.985Z,989.89
2022-08-18T10:46:28.520Z,989.89
2022-08-18T10:47:33.500Z,989.87
2022-08-18T10:48:27.078Z,989.90
2022-08-18T10:50:26.933Z,989.88
2022-08-18T10:51:25.935Z,989.87
2022-08-18T10:52:25.921Z,989.83
2022-08-18T10:53:40.710Z,989.81
2022-08-18T10:54:27.920Z,989.85
2022-08-18T10:55:25.910Z,989.86
2022-08-18T10:56:27.430Z,989.84
2022-08-18T10:57:25.889Z,989.77
2022-08-18T10:58:28.220Z,989.79
2022-08-18T10:59:28.083Z,989.76
2022-08-18T11:00:26.099Z,989.76
2022-08-18T11:01:25.856Z,989.63
2022-08-18T11:02:26.848Z,989.64
2022-08-18T11:03:55.491Z,989.55
2022-08-18T11:04:34.526Z,989.59
2022-08-18T11:05:27.827Z,989.63
2022-08-18T11:06:25.828Z,989.59
2022-08-18T11:07:25.824Z,989.64
2022-08-18T11:08:25.839Z,989.65
2022-08-18T11:09:25.798Z,989.68
2022-08-18T11:10:30.032Z,989.66
2022-08-18T11:12:27.771Z,989.70
2022-08-18T11:13:26.121Z,989.63
2022-08-18T11:14:25.769Z,989.64
2022-08-18T11:15:25.750Z,989.60
2022-08-18T11:16:25.741Z,989.55
2022-08-18T11:17:26.362Z,989.58
2022-08-18T11:18:25.728Z,989.58
2022-08-18T11:19:25.714Z,989.62
2022-08-18T11:20:25.710Z,989.67
2022-08-18T11:21:25.702Z,989.61
2022-08-18T11:22:31.501Z,989.60
2022-08-18T11:23:26.690Z,989.63
2022-08-18T11:24:25.686Z,989.58
2022-08-18T11:25:25.672Z,989.63
2022-08-18T11:26:25.664Z,989.67
2022-08-18T11:27:25.651Z,989.70
2022-08-18T11:29:26.630Z,989.67
2022-08-18T11:30:30.426Z,989.69
2022-08-18T11:31:26.621Z,989.70
2022-08-18T11:32:26.258Z,989.70
2022-08-18T11:33:25.608Z,989.64
2022-08-18T11:34:25.596Z,989.62
2022-08-18T11:35:25.594Z,989.63
2022-08-18T11:36:26.150Z,989.58
2022-08-18T11:37:25.576Z,989.51
2022-08-18T11:38:25.565Z,989.50
2022-08-18T11:39:36.861Z,989.49
2022-08-18T11:41:08.974Z,989.50
2022-08-18T11:41:48.259Z,989.47
2022-08-18T11:42:26.543Z,989.52
2022-08-18T11:43:25.534Z,989.53
2022-08-18T11:44:25.610Z,989.57
2022-08-18T11:45:25.520Z,989.55
2022-08-18T11:46:30.134Z,989.62
2022-08-18T11:47:27.702Z,989.56
2022-08-18T11:48:32.158Z,989.59
2022-08-18T11:49:27.480Z,989.55
2022-08-18T11:50:25.475Z,989.57
2022-08-18T11:51:25.596Z,989.59
2022-08-18T11:52:29.074Z,989.65
2022-08-18T11:53:27.338Z,989.59
2022-08-18T11:54:25.441Z,989.54
2022-08-18T11:55:25.435Z,989.61
2022-08-18T11:56:27.102Z,989.61
2022-08-18T11:57:26.437Z,989.61
2022-08-18T11:58:25.415Z,989.60
2022-08-18T11:59:52.655Z,989.65
2022-08-18T12:00:26.407Z,989.67
2022-08-18T12:01:25.393Z,989.67
2022-08-18T12:02:25.440Z,989.68
2022-08-18T12:03:28.454Z,989.60
2022-08-18T12:04:26.277Z,989.56
2022-08-18T12:05:25.357Z,989.50
2022-08-18T12:06:27.094Z,989.54
2022-08-18T12:07:25.357Z,989.51
2022-08-18T12:08:54.654Z,989.47
2022-08-18T12:10:28.463Z,989.42
2022-08-18T12:11:27.194Z,989.44
2022-08-18T12:12:25.468Z,989.41
2022-08-18T12:13:25.310Z,989.43
2022-08-18T12:15:36.556Z,989.44
2022-08-18T12:16:27.276Z,989.51
2022-08-18T12:17:25.282Z,989.50
2022-08-18T12:18:28.728Z,989.46
2022-08-18T12:19:25.331Z,989.44
2022-08-18T12:20:25.242Z,989.50
2022-08-18T12:21:25.256Z,989.44
2022-08-18T12:22:26.223Z,989.53
2022-08-18T12:23:25.230Z,989.48
2022-08-18T12:24:26.081Z,989.55
2022-08-18T12:25:25.810Z,989.53
2022-08-18T12:26:38.820Z,989.57
2022-08-18T12:27:26.188Z,989.56
2022-08-18T12:28:28.197Z,989.54
2022-08-18T12:29:29.474Z,989.53
2022-08-18T12:30:27.165Z,989.49
2022-08-18T12:32:41.345Z,989.33
2022-08-18T12:33:34.562Z,989.33
2022-08-18T12:34:26.609Z,989.31
2022-08-18T12:35:25.181Z,989.27
2022-08-18T12:36:25.117Z,989.26
2022-08-18T12:37:58.129Z,989.22